createdAt,value
2019-02-04T05:30:57.514Z,28.27
2019-02-04T05:33:26.276Z,31.73
2019-02-04T05:35:55.472Z,28.13
2019-02-04T05:41:52.949Z,29.67
2019-02-04T05:47:49.670Z,25.53
2019-02-04T05:50:19.895Z,25.47
2019-02-04T05:56:29.390Z,24.17
2019-02-04T05:58:57.903Z,22.70
2019-02-04T06:04:55.711Z,21.57
2019-02-04T06:10:53.192Z,27.67
2019-02-04T06:13:21.790Z,25.60
2019-02-04T06:15:50.231Z,27.00
2019-02-04T06:18:19.125Z,24.57
2019-02-04T06:24:16.434Z,24.60
2019-02-04T06:26:44.908Z,25.93
2019-02-04T06:29:13.401Z,28.93
2019-02-04T06:31:41.882Z,23.80
2019-02-04T06:34:10.354Z,21.17
2019-02-04T06:36:39.659Z,21.50
2019-02-04T06:42:36.630Z,23.37
2019-02-04T06:45:08.431Z,24.80
2019-02-04T06:47:36.883Z,21.37
2019-02-04T06:50:08.635Z,22.00
2019-02-04T06:52:37.386Z,40.53
2019-02-04T06:55:08.975Z,39.13
2019-02-04T07:01:06.485Z,27.23
2019-02-04T07:03:35.303Z,29.23
2019-02-04T07:06:03.963Z,28.20
2019-02-04T07:08:32.470Z,25.40
2019-02-04T07:11:01.771Z,25.80
2019-02-04T07:13:30.222Z,24.30
2019-02-04T07:15:58.742Z,29.30
2019-02-04T07:18:27.205Z,25.73
2019-02-04T07:20:55.718Z,23.30
2019-02-04T07:23:24.508Z,40.17
2019-02-04T07:25:52.970Z,47.53
2019-02-04T07:28:21.406Z,37.37
2019-02-04T07:33:54.458Z,34.63
2019-02-04T07:36:23.007Z,33.43
2019-02-04T07:38:51.443Z,37.03
2019-02-04T07:41:19.878Z,29.90
2019-02-04T07:43:48.377Z,30.77
2019-02-04T07:46:16.818Z,29.30
2019-02-04T07:48:45.267Z,29.67
2019-02-04T07:51:14.228Z,29.00
2019-02-04T07:53:42.794Z,28.73
2019-02-04T07:56:11.255Z,27.83
2019-02-04T08:02:08.190Z,28.90
2019-02-04T08:04:36.739Z,27.23
2019-02-04T08:10:46.912Z,26.23
2019-02-04T08:13:15.347Z,27.10
2019-02-04T08:15:43.790Z,29.00
2019-02-04T08:18:12.267Z,26.67
2019-02-04T08:20:40.718Z,24.97
2019-02-04T08:23:09.227Z,24.53
2019-02-04T08:25:38.182Z,22.70
2019-02-04T08:28:06.694Z,24.30
2019-02-04T08:30:38.180Z,25.73
2019-02-04T08:33:07.299Z,29.73
2019-02-04T08:35:35.810Z,23.07
2019-02-04T08:38:04.594Z,30.60
2019-02-04T08:40:33.518Z,30.67
2019-02-04T08:43:02.037Z,27.77
2019-02-04T08:49:00.084Z,26.00
2019-02-04T08:51:29.014Z,25.40
2019-02-04T08:53:57.503Z,26.33
2019-02-04T08:59:54.937Z,25.97
2019-02-04T09:02:23.462Z,28.80
2019-02-04T09:04:52.219Z,27.93
2019-02-04T09:07:20.888Z,27.87
2019-02-04T09:09:49.505Z,26.47
2019-02-04T09:12:18.373Z,26.90
2019-02-04T09:14:46.879Z,28.07
2019-02-04T09:17:15.351Z,29.40
2019-02-04T09:19:44.543Z,29.47
2019-02-04T09:25:42.303Z,29.53
2019-02-04T09:28:10.780Z,28.67
2019-02-04T09:30:39.286Z,31.23
2019-02-04T09:36:36.470Z,29.57
2019-02-04T09:39:07.605Z,31.33
2019-02-04T09:41:36.767Z,32.17
2019-02-04T09:47:34.583Z,32.63
2019-02-04T09:50:03.666Z,34.70
2019-02-04T09:56:13.694Z,35.03
2019-02-04T09:58:42.135Z,35.20
2019-02-04T10:04:39.897Z,33.07
2019-02-04T10:07:08.375Z,31.27
2019-02-04T10:09:36.811Z,30.13
2019-02-04T10:12:05.321Z,31.27
2019-02-04T10:14:34.157Z,33.17
2019-02-04T10:17:02.950Z,33.27
2019-02-04T10:19:31.755Z,35.73
2019-02-04T10:22:00.257Z,33.03
2019-02-04T10:24:28.731Z,34.50
2019-02-04T10:26:57.260Z,36.57
2019-02-04T10:29:25.793Z,32.33
2019-02-04T10:31:54.287Z,32.73
2019-02-04T10:34:23.215Z,32.03
2019-02-04T10:36:51.899Z,32.97
2019-02-04T10:39:20.766Z,34.03
2019-02-04T10:45:19.112Z,33.90
2019-02-04T10:47:48.500Z,31.43
2019-02-04T10:50:22.323Z,33.10
2019-02-04T10:52:50.893Z,31.77
2019-02-04T10:55:19.594Z,33.33
2019-02-04T11:01:29.239Z,32.10
2019-02-04T11:03:57.670Z,29.37
2019-02-04T11:06:26.195Z,30.07
2019-02-04T11:08:54.865Z,29.70
2019-02-04T11:15:07.097Z,32.23
2019-02-04T11:17:35.599Z,33.50
2019-02-04T11:20:12.957Z,31.77
2019-02-04T11:22:41.409Z,29.03
2019-02-04T11:25:10.449Z,30.07
2019-02-04T11:27:39.167Z,29.03
2019-02-04T11:30:10.844Z,27.87
2019-02-04T11:32:39.404Z,31.77
2019-02-04T11:35:08.578Z,26.30
2019-02-04T11:37:37.087Z,30.80
2019-02-04T11:43:10.243Z,28.93
2019-02-04T11:49:07.775Z,28.80
2019-02-04T11:51:36.387Z,28.53
2019-02-04T11:54:05.081Z,30.77
2019-02-04T11:56:33.579Z,27.80
2019-02-04T11:59:02.064Z,26.93
2019-02-04T12:01:30.947Z,27.13
2019-02-04T12:04:01.523Z,28.70
2019-02-04T12:06:30.013Z,26.73
2019-02-04T12:08:58.757Z,27.87
2019-02-04T12:14:55.747Z,28.03
2019-02-04T12:17:24.591Z,24.03
2019-02-04T12:23:22.068Z,23.53
2019-02-04T12:29:19.504Z,26.20
2019-02-04T12:31:48.124Z,23.70
2019-02-04T12:34:16.563Z,27.77
2019-02-04T12:39:49.449Z,27.20
2019-02-04T12:42:17.923Z,25.40
2019-02-04T12:48:27.300Z,23.07
2019-02-04T12:50:56.238Z,25.83
2019-02-04T12:53:24.685Z,24.43
2019-02-04T12:55:53.840Z,24.00
2019-02-04T12:58:22.734Z,25.17
2019-02-04T13:00:51.244Z,22.83
2019-02-04T13:03:19.989Z,22.83
2019-02-04T13:09:30.107Z,24.23
2019-02-04T13:11:58.545Z,24.23
2019-02-04T13:14:27.324Z,24.57
2019-02-04T13:16:55.794Z,19.70
2019-02-04T13:19:24.235Z,23.87
2019-02-04T13:25:24.028Z,21.27
2019-02-04T13:31:21.378Z,23.67
2019-02-04T13:33:49.853Z,21.83
2019-02-04T13:39:59.306Z,21.67
2019-02-04T13:45:57.274Z,23.20
2019-02-04T13:48:25.714Z,23.17
2019-02-04T13:50:54.155Z,21.23
2019-02-04T13:53:22.743Z,23.23
2019-02-04T13:55:51.185Z,23.13
2019-02-04T13:58:21.629Z,21.77
2019-02-04T14:00:49.837Z,19.53
2019-02-04T14:03:18.349Z,20.57
2019-02-04T14:05:46.867Z,24.23
2019-02-04T14:08:15.406Z,20.43
2019-02-04T14:10:46.195Z,19.03
2019-02-04T14:13:14.745Z,21.40
2019-02-04T14:15:43.559Z,20.10
2019-02-04T14:18:12.276Z,20.47
2019-02-04T14:20:40.783Z,19.70
2019-02-04T14:23:09.471Z,23.63
2019-02-04T14:25:38.048Z,22.60
2019-02-04T14:28:06.723Z,21.07
2019-02-04T14:30:38.269Z,19.40
2019-02-04T14:33:07.243Z,22.60
2019-02-04T14:35:36.334Z,20.37
2019-02-04T14:38:06.339Z,20.77
2019-02-04T14:40:34.847Z,19.90
2019-02-04T14:43:16.116Z,21.10
2019-02-04T14:46:02.831Z,21.13
2019-02-04T14:52:31.069Z,22.13
2019-02-04T14:55:27.491Z,20.77
2019-02-04T14:58:01.999Z,21.87
2019-02-04T15:00:56.234Z,22.87
2019-02-04T15:03:30.694Z,21.60
2019-02-04T15:06:02.347Z,22.57
2019-02-04T15:08:50.603Z,23.43
2019-02-04T15:11:25.126Z,19.93
2019-02-04T15:14:02.602Z,20.27
2019-02-04T15:20:25.953Z,20.57
2019-02-04T15:23:00.366Z,19.83
2019-02-04T15:25:50.082Z,21.10
2019-02-04T15:28:38.216Z,21.97
2019-02-04T15:31:30.757Z,21.33
2019-02-04T15:34:10.915Z,20.03
2019-02-04T15:36:48.456Z,21.13
2019-02-04T15:39:28.870Z,20.27
2019-02-04T15:42:05.879Z,21.73
2019-02-04T15:44:45.822Z,18.30
2019-02-04T15:51:07.392Z,19.10
2019-02-04T15:57:18.099Z,21.60
2019-02-04T15:59:46.599Z,21.83
2019-02-04T16:05:43.167Z,23.03
2019-02-04T16:08:11.655Z,22.37
2019-02-04T16:14:21.630Z,23.03
2019-02-04T16:16:50.728Z,24.93
2019-02-04T16:22:57.801Z,21.97
2019-02-04T16:25:18.147Z,23.37
2019-02-04T16:27:46.651Z,24.63
2019-02-04T16:30:17.631Z,23.87
2019-02-04T16:32:46.243Z,23.43
2019-02-04T16:35:17.551Z,25.33
2019-02-04T16:37:46.923Z,24.93
2019-02-04T16:40:17.626Z,24.90
2019-02-04T16:42:46.430Z,26.00
2019-02-04T16:45:23.192Z,25.40
2019-02-04T16:51:32.819Z,25.53
2019-02-04T16:54:01.347Z,27.90
2019-02-04T16:56:29.851Z,27.83
2019-02-04T16:58:58.721Z,30.27
2019-02-04T17:05:11.852Z,25.73
2019-02-04T17:07:40.287Z,27.13
2019-02-04T17:10:15.302Z,26.30
2019-02-04T17:16:24.948Z,28.87
2019-02-04T17:18:54.217Z,37.37
2019-02-04T17:21:22.655Z,32.80
2019-02-04T17:23:51.393Z,27.73
2019-02-04T18:14:19.543Z,28.97
2019-02-04T18:20:17.298Z,28.47
2019-02-04T18:22:45.909Z,31.43
2019-02-04T18:25:21.943Z,30.73
2019-02-04T18:27:51.182Z,32.37
2019-02-04T18:30:26.666Z,31.43
2019-02-04T18:36:23.763Z,30.83
2019-02-04T18:38:52.958Z,33.47
2019-02-04T18:41:21.459Z,30.83
2019-02-04T18:47:18.738Z,30.73
2019-02-04T18:52:54.072Z,30.40
2019-02-04T18:55:32.241Z,30.27
2019-02-04T19:01:41.690Z,30.33
2019-02-04T19:12:48.204Z,32.47
2019-02-04T19:18:21.521Z,31.17
2019-02-04T19:20:50.320Z,32.13
2019-02-04T19:26:47.361Z,27.27
2019-02-04T19:29:15.882Z,30.60
2019-02-04T19:31:44.896Z,29.80
2019-02-04T19:37:42.783Z,28.10
2019-02-04T19:43:53.261Z,30.23
2019-02-04T19:46:22.259Z,31.53
2019-02-04T19:48:51.039Z,30.23
2019-02-04T19:51:19.962Z,29.50
2019-02-04T19:53:48.406Z,28.70
2019-02-04T19:56:16.929Z,30.87
2019-02-04T20:12:41.457Z,31.67
2019-02-04T20:18:26.627Z,34.77
2019-02-04T20:20:55.171Z,35.20
2019-02-04T20:27:04.960Z,31.40
2019-02-04T20:29:33.407Z,35.23
